Time;durP1;ratioP1;P1;durP2;ratioP2;P2;SDS_P1;SDS_P2;PMS_P1;PMS_P2;Temp;Humidity;BMP_temperature;BMP_pressure;BME280_temperature;BME280_humidity;BME280_pressure;Samples;Min_cycle;Max_cycle;Signal;HPM_P1;HPM_P2
2022/06/21 00:02:24;;;;;;;15.23;13.47;;;17.90;99.90;19.40;96494.00;;;;5048634;28;20219;-65
2022/06/21 00:05:19;;;;;;;18.07;12.77;;;17.90;99.90;19.50;96493.00;;;;5049562;28;20215;-66
2022/06/21 00:08:14;;;;;;;13.90;12.47;;;17.90;99.90;19.50;96491.00;;;;5049945;28;20227;-66
2022/06/21 00:11:04;;;;;;;15.10;12.13;;;17.70;99.90;19.50;96496.00;;;;5048490;28;20208;-66
2022/06/21 00:13:53;;;;;;;23.67;15.77;;;18.00;99.90;19.30;96496.00;;;;5076007;22;20740;-66
2022/06/21 00:16:42;;;;;;;20.33;15.43;;;17.70;99.90;19.40;96496.00;;;;5083594;28;20206;-68
2022/06/21 00:19:33;;;;;;;14.83;13.03;;;17.90;99.90;19.40;96490.00;;;;5095310;28;20213;-65
2022/06/21 00:22:21;;;;;;;13.70;12.30;;;18.00;99.90;19.40;96488.00;;;;5078298;28;20191;-68
2022/06/21 00:25:18;;;;;;;16.20;12.50;;;17.80;99.90;19.20;96490.00;;;;5066269;28;20283;-68
2022/06/21 00:28:07;;;;;;;17.53;14.03;;;17.70;99.90;19.40;96485.00;;;;5072314;28;20192;-67
2022/06/21 00:30:56;;;;;;;15.63;11.13;;;17.90;99.90;19.40;96492.00;;;;5063073;28;20213;-68
2022/06/21 00:33:45;;;;;;;14.87;12.17;;;18.10;99.90;19.40;96504.00;;;;5056431;28;20216;-67
2022/06/21 00:36:37;;;;;;;17.27;13.33;;;17.90;99.90;19.40;96500.00;;;;5067000;28;20717;-67
2022/06/21 00:39:26;;;;;;;19.77;14.90;;;17.90;99.90;19.50;96491.00;;;;5067386;28;20211;-67
2022/06/21 00:42:22;;;;;;;14.43;10.97;;;18.00;99.90;19.40;96500.00;;;;5068223;28;20227;-68
2022/06/21 00:45:28;;;;;;;14.63;12.00;;;18.10;99.90;19.40;96501.00;;;;5067549;28;20203;-67
2022/06/21 00:48:20;;;;;;;21.30;15.30;;;18.00;99.90;19.20;96490.00;;;;5068488;28;20196;-68
2022/06/21 00:51:15;;;;;;;18.30;16.03;;;17.70;99.90;18.90;96493.00;;;;5087065;28;20226;-68
2022/06/21 00:54:13;;;;;;;16.70;13.77;;;17.80;99.90;19.10;96490.00;;;;5088220;28;20710;-68
2022/06/21 00:57:07;;;;;;;16.97;15.23;;;17.70;99.90;19.20;96485.00;;;;5075574;28;20204;-68
2022/06/21 00:59:58;;;;;;;15.57;13.90;;;17.70;99.90;19.20;96490.00;;;;5056907;28;20690;-67
2022/06/21 01:02:47;;;;;;;18.97;13.73;;;17.70;99.90;19.30;96494.00;;;;5068516;28;20254;-68
2022/06/21 01:05:41;;;;;;;15.90;14.30;;;17.70;99.90;19.40;96489.00;;;;5067545;28;20196;-69
2022/06/21 01:08:37;;;;;;;17.67;13.40;;;18.00;99.90;19.20;96492.00;;;;5067656;28;20200;-68
2022/06/21 01:11:36;;;;;;;20.83;17.40;;;17.70;99.90;19.10;96490.00;;;;5067796;28;20216;-67
2022/06/21 01:14:27;;;;;;;20.20;15.87;;;17.70;99.90;19.20;96489.00;;;;5068934;28;20239;-66
2022/06/21 01:17:18;;;;;;;20.00;16.07;;;17.80;99.90;19.30;96492.00;;;;5071375;28;20585;-67
2022/06/21 01:20:12;;;;;;;19.97;15.63;;;17.80;99.90;19.30;96484.00;;;;5071548;28;20203;-68
2022/06/21 01:23:16;;;;;;;17.17;14.73;;;17.90;99.90;18.80;96477.00;;;;5066051;28;20211;-67
2022/06/21 01:26:27;;;;;;;23.17;16.70;;;17.80;99.90;18.80;96489.00;;;;5061098;28;20207;-67
2022/06/21 01:29:20;;;;;;;20.13;16.57;;;17.80;99.90;19.10;96492.00;;;;5081927;28;20202;-67
2022/06/21 01:32:09;;;;;;;17.53;15.07;;;17.90;99.90;19.20;96495.00;;;;5092022;28;20223;-66
2022/06/21 01:34:59;;;;;;;20.33;16.60;;;17.70;99.90;19.30;96491.00;;;;5091422;28;20219;-67
2022/06/21 01:37:48;;;;;;;16.90;14.03;;;17.70;99.90;19.40;96495.00;;;;5091400;28;20203;-67
2022/06/21 01:40:44;;;;;;;17.93;14.40;;;17.60;99.90;19.40;96497.00;;;;5091602;28;20199;-68
2022/06/21 01:43:35;;;;;;;20.20;15.50;;;17.90;99.90;19.30;96494.00;;;;5090595;28;20227;-67
2022/06/21 01:46:28;;;;;;;21.33;16.83;;;17.90;99.90;19.20;96498.00;;;;5090362;28;20211;-67
2022/06/21 01:49:21;;;;;;;24.40;18.27;;;17.70;99.90;19.10;96495.00;;;;5075099;28;20195;-66
2022/06/21 01:52:16;;;;;;;20.17;16.43;;;17.70;99.90;18.90;96490.00;;;;5071530;28;20196;-67
2022/06/21 01:55:11;;;;;;;17.27;15.33;;;17.60;99.90;19.10;96486.00;;;;5071071;28;20227;-68
2022/06/21 01:58:01;;;;;;;19.47;15.90;;;17.70;99.90;19.30;96476.00;;;;5056553;28;20211;-67
2022/06/21 02:00:57;;;;;;;20.30;17.97;;;17.50;99.90;19.40;96465.00;;;;5069552;28;20192;-68
2022/06/21 02:03:50;;;;;;;19.17;16.50;;;17.80;99.90;19.30;96457.00;;;;5070090;28;20220;-68
2022/06/21 02:06:44;;;;;;;19.53;16.57;;;17.80;99.90;19.20;96451.00;;;;5070968;28;20241;-67
2022/06/21 02:09:38;;;;;;;21.73;17.47;;;17.80;99.90;19.30;96453.00;;;;5069975;28;20208;-67
2022/06/21 02:12:30;;;;;;;19.63;15.33;;;17.80;99.90;19.40;96460.00;;;;5071009;28;20203;-68
2022/06/21 02:15:35;;;;;;;21.07;15.57;;;17.70;99.90;19.40;96460.00;;;;5069379;28;20216;-67
2022/06/21 02:18:29;;;;;;;19.53;14.47;;;17.80;99.90;19.40;96466.00;;;;5070633;28;20211;-68
2022/06/21 02:21:26;;;;;;;14.70;12.70;;;17.90;99.90;19.40;96466.00;;;;5065535;28;20201;-68
2022/06/21 02:24:16;;;;;;;17.73;14.47;;;17.80;99.90;19.30;96465.00;;;;5058886;28;20224;-68
2022/06/21 02:27:06;;;;;;;19.00;16.37;;;17.70;99.90;19.00;96470.00;;;;5069872;28;20203;-67
2022/06/21 02:29:57;;;;;;;19.10;15.37;;;18.00;99.90;19.00;96470.00;;;;5069211;28;20215;-67
2022/06/21 02:32:47;;;;;;;21.67;16.83;;;17.60;99.90;19.20;96472.00;;;;5070243;28;20200;-68
2022/06/21 02:35:42;;;;;;;19.20;14.90;;;17.60;99.90;19.30;96463.00;;;;5068283;28;20207;-68
2022/06/21 02:38:36;;;;;;;17.50;15.63;;;17.70;99.90;19.30;96465.00;;;;5055854;28;20203;-68
2022/06/21 02:41:31;;;;;;;21.23;17.37;;;17.90;99.90;19.30;96468.00;;;;5070227;28;20204;-67
2022/06/21 02:44:25;;;;;;;20.90;15.80;;;17.60;99.90;19.20;96462.00;;;;5070324;28;20699;-68
2022/06/21 02:47:19;;;;;;;21.03;14.53;;;17.60;99.90;19.30;96467.00;;;;5069914;28;20701;-66
2022/06/21 02:50:36;;;;;;;22.10;13.63;;;17.70;99.90;19.30;96460.00;;;;5078460;28;20214;-68
2022/06/21 02:53:30;;;;;;;17.53;13.77;;;17.70;99.90;19.20;96467.00;;;;5088591;28;20215;-67
2022/06/21 02:56:28;;;;;;;19.70;15.93;;;17.80;99.90;18.90;96460.00;;;;5081882;28;20607;-67
2022/06/21 02:59:17;;;;;;;20.73;14.83;;;17.60;99.90;18.70;96458.00;;;;5069071;28;20204;-68
2022/06/21 03:02:11;;;;;;;16.60;13.83;;;17.50;99.90;19.10;96459.00;;;;5069202;28;20200;-68
2022/06/21 03:05:03;;;;;;;15.67;14.17;;;17.50;99.90;19.10;96460.00;;;;5069605;28;20703;-68
2022/06/21 03:07:56;;;;;;;15.70;14.00;;;17.60;99.90;19.20;96463.00;;;;5069779;28;20275;-67
2022/06/21 03:10:50;;;;;;;17.13;15.33;;;17.70;99.90;19.00;96467.00;;;;5068758;28;20211;-67
2022/06/21 03:13:40;;;;;;;19.10;15.70;;;17.60;99.90;19.20;96458.00;;;;5066041;28;20235;-67
2022/06/21 03:16:29;;;;;;;16.03;14.17;;;17.70;99.90;19.20;96460.00;;;;5062641;28;20718;-68
2022/06/21 03:19:32;;;;;;;15.13;13.53;;;17.70;99.90;18.90;96460.00;;;;5067757;28;20461;-67
2022/06/21 03:22:24;;;;;;;18.10;14.27;;;17.70;99.90;18.40;96455.00;;;;5058150;28;20210;-67
2022/06/21 03:25:22;;;;;;;18.43;15.03;;;17.50;99.90;18.40;96454.00;;;;5060532;28;20200;-67
2022/06/21 03:28:33;;;;;;;20.73;14.33;;;17.50;99.90;18.70;96456.00;;;;5068788;28;20204;-67
2022/06/21 03:31:28;;;;;;;15.73;13.83;;;17.10;99.90;18.50;96455.00;;;;5058305;28;20209;-68
2022/06/21 03:34:20;;;;;;;23.37;16.87;;;17.40;99.90;18.50;96469.00;;;;5064459;28;20293;-67
2022/06/21 03:37:09;;;;;;;18.17;15.53;;;17.30;99.90;18.50;96464.00;;;;5085502;28;20231;-67
2022/06/21 03:43:15;;;;;;;23.83;17.73;;;17.20;99.90;18.60;96464.00;;;;5087651;28;20202;-67
2022/06/21 03:46:18;;;;;;;21.57;15.80;;;17.30;99.90;18.70;96463.00;;;;5086749;28;20270;-67
2022/06/21 03:49:16;;;;;;;24.00;15.80;;;17.30;99.90;18.50;96475.00;;;;5074450;28;20193;-66
2022/06/21 03:52:11;;;;;;;19.30;14.93;;;17.90;99.90;18.60;96476.00;;;;5064724;28;20232;-67
2022/06/21 03:55:00;;;;;;;20.00;15.43;;;17.20;99.90;18.90;96479.00;;;;5066852;28;20581;-67
2022/06/21 03:57:57;;;;;;;18.53;14.53;;;17.40;99.90;18.90;96465.00;;;;5069150;28;20227;-66
2022/06/21 04:00:54;;;;;;;15.67;14.10;;;17.40;99.90;18.70;96470.00;;;;5067812;28;20279;-68
2022/06/21 04:03:51;;;;;;;19.20;14.90;;;17.30;99.90;18.80;96472.00;;;;5062818;28;20219;-68
2022/06/21 04:06:49;;;;;;;20.77;15.30;;;17.40;99.90;18.80;96471.00;;;;5060838;28;20667;-67
2022/06/21 04:09:46;;;;;;;16.87;15.07;;;17.50;99.90;18.80;96473.00;;;;5067999;28;20203;-68
2022/06/21 04:12:45;;;;;;;19.03;14.70;;;17.30;99.90;18.90;96477.00;;;;5078988;28;20204;-69
2022/06/21 04:15:42;;;;;;;20.13;15.70;;;17.50;99.90;18.90;96473.00;;;;5059850;28;20241;-69
2022/06/21 04:18:48;;;;;;;17.50;15.63;;;17.60;99.90;18.70;96473.00;;;;5060175;28;20589;-66
2022/06/21 04:21:44;;;;;;;19.13;16.97;;;18.00;99.90;18.80;96477.00;;;;5061059;28;20200;-67
2022/06/21 04:24:42;;;;;;;18.43;15.80;;;17.50;99.90;18.70;96477.00;;;;5068712;28;20725;-68
2022/06/21 04:27:36;;;;;;;19.97;15.83;;;17.60;99.90;18.60;96476.00;;;;5085812;28;20557;-67
2022/06/21 04:30:37;;;;;;;23.30;17.40;;;17.60;99.90;18.60;96474.00;;;;5063225;28;20587;-66
2022/06/21 04:33:33;;;;;;;18.57;14.93;;;17.30;99.90;18.80;96487.00;;;;5047892;28;20224;-68
2022/06/21 04:36:29;;;;;;;20.83;15.80;;;17.10;99.90;19.00;96477.00;;;;5056069;28;20241;-66
2022/06/21 04:39:25;;;;;;;20.83;15.83;;;17.50;99.90;19.00;96477.00;;;;5062343;28;20197;-67
2022/06/21 04:42:21;;;;;;;20.70;17.50;;;17.60;99.90;19.00;96476.00;;;;5061836;28;20204;-67
2022/06/21 04:45:22;;;;;;;19.23;16.40;;;17.60;99.90;18.70;96490.00;;;;5079113;28;20706;-67
2022/06/21 04:48:29;;;;;;;19.40;17.03;;;17.60;99.90;18.80;96478.00;;;;5062074;28;20210;-67
2022/06/21 04:51:27;;;;;;;22.53;16.70;;;17.60;99.90;18.80;96475.00;;;;5063595;28;20564;-67
2022/06/21 04:54:24;;;;;;;17.17;15.37;;;17.40;99.90;19.00;96486.00;;;;5071318;28;20215;-65
2022/06/21 04:57:16;;;;;;;19.13;17.07;;;17.50;99.90;18.80;96475.00;;;;5072344;28;20239;-67
2022/06/21 05:00:11;;;;;;;18.37;16.23;;;17.60;99.90;18.90;96475.00;;;;5068906;28;20200;-67
2022/06/21 05:03:09;;;;;;;19.97;15.87;;;17.60;99.90;18.70;96472.00;;;;5068215;28;20208;-65
2022/06/21 05:05:59;;;;;;;22.27;16.23;;;17.60;99.90;19.00;96478.00;;;;5057171;28;20202;-68
2022/06/21 05:08:50;;;;;;;20.70;16.57;;;17.70;99.90;19.10;96487.00;;;;5060178;28;20204;-68
2022/06/21 05:11:52;;;;;;;17.67;15.50;;;17.60;99.90;19.20;96485.00;;;;5069128;28;20207;-66
2022/06/21 05:14:52;;;;;;;17.60;14.50;;;17.80;99.90;19.10;96487.00;;;;5074394;28;20707;-69
2022/06/21 05:17:46;;;;;;;17.87;16.03;;;17.70;99.90;19.30;96495.00;;;;5071958;28;20224;-69
2022/06/21 05:20:38;;;;;;;18.03;16.13;;;18.00;99.90;19.40;96490.00;;;;5063830;28;20611;-70
2022/06/21 05:23:28;;;;;;;16.27;14.30;;;17.90;99.90;19.30;96505.00;;;;5063940;28;20216;-70
2022/06/21 05:26:33;;;;;;;16.97;15.07;;;17.80;99.90;19.60;96509.00;;;;5073457;28;20203;-69
2022/06/21 05:29:29;;;;;;;18.00;14.67;;;18.00;99.90;19.60;96512.00;;;;5071511;28;20695;-69
2022/06/21 05:32:23;;;;;;;18.57;14.60;;;18.10;99.90;19.80;96508.00;;;;5070312;28;20211;-70
2022/06/21 05:35:16;;;;;;;18.23;14.20;;;18.10;99.90;19.80;96500.00;;;;5069734;28;20196;-70
2022/06/21 05:38:11;;;;;;;14.77;13.27;;;18.40;99.90;20.00;96510.00;;;;5060983;28;20217;-69
2022/06/21 05:41:03;;;;;;;18.63;14.80;;;18.30;99.90;20.20;96511.00;;;;5069386;28;20206;-72
2022/06/21 05:43:53;;;;;;;15.33;13.73;;;18.30;99.90;20.20;96504.00;;;;5067711;28;20242;-70
2022/06/21 05:46:48;;;;;;;16.90;14.50;;;18.60;99.90;20.40;96510.00;;;;5078769;28;20207;-69
2022/06/21 05:49:38;;;;;;;15.63;13.40;;;18.50;99.90;20.50;96503.00;;;;5071490;28;20218;-69
2022/06/21 05:52:33;;;;;;;13.93;11.70;;;18.80;99.90;20.50;96509.00;;;;5075543;28;20207;-70
2022/06/21 05:55:27;;;;;;;15.13;12.27;;;18.70;99.90;20.80;96511.00;;;;5078181;28;20196;-73
2022/06/21 05:58:21;;;;;;;15.33;10.80;;;19.00;99.90;21.00;96508.00;;;;5069006;28;20212;-69
2022/06/21 06:01:18;;;;;;;11.17;10.07;;;19.10;99.90;21.30;96506.00;;;;5066471;28;20204;-74
2022/06/21 06:04:13;;;;;;;20.30;11.97;;;19.20;99.90;21.60;96504.00;;;;5071564;28;20223;-69
2022/06/21 06:07:05;;;;;;;14.27;10.87;;;19.50;99.90;21.60;96513.00;;;;5070995;28;20208;-72
2022/06/21 06:09:56;;;;;;;13.70;12.17;;;19.80;99.90;21.30;96508.00;;;;5070267;28;20295;-69
2022/06/21 06:12:49;;;;;;;14.03;12.60;;;19.70;99.90;21.30;96508.00;;;;5089571;28;20708;-70
2022/06/21 06:15:43;;;;;;;14.77;10.87;;;19.70;99.90;21.70;96502.00;;;;5080051;22;20238;-84
2022/06/21 06:18:49;;;;;;;12.40;11.20;;;19.90;99.90;22.10;96512.00;;;;5075539;28;20224;-86
2022/06/21 06:21:46;;;;;;;16.23;11.50;;;20.00;99.90;22.50;96506.00;;;;5076460;28;20200;-83
2022/06/21 06:24:42;;;;;;;18.97;12.10;;;20.10;99.90;22.80;96526.00;;;;5071721;28;20697;-84
2022/06/21 06:27:39;;;;;;;13.73;11.30;;;20.30;99.90;22.90;96526.00;;;;5073003;28;20200;-86
2022/06/21 06:30:37;;;;;;;16.93;11.37;;;20.60;99.90;23.10;96527.00;;;;5071020;28;20200;-87
2022/06/21 06:33:33;;;;;;;16.57;11.33;;;20.80;99.90;23.30;96524.00;;;;5065526;28;20688;-85
2022/06/21 06:36:27;;;;;;;11.47;9.63;;;21.00;99.90;23.40;96526.00;;;;5074341;28;20204;-85
2022/06/21 06:39:23;;;;;;;10.63;9.63;;;21.10;99.90;23.30;96535.00;;;;5074874;28;20232;-84
2022/06/21 06:42:16;;;;;;;10.73;9.30;;;21.20;99.90;23.40;96524.00;;;;5073998;28;20200;-87
2022/06/21 06:45:14;;;;;;;11.00;8.60;;;21.30;99.90;23.40;96532.00;;;;5075376;28;20712;-84
2022/06/21 06:48:15;;;;;;;10.53;9.40;;;21.40;99.90;23.40;96523.00;;;;5071395;28;20208;-84
2022/06/21 06:51:37;;;;;;;12.17;8.73;;;21.50;99.90;23.70;96531.00;;;;5062954;28;20263;-85
2022/06/21 06:54:37;;;;;;;12.27;9.00;;;21.70;99.90;24.30;96528.00;;;;5063440;28;20228;-86
2022/06/21 06:57:32;;;;;;;17.70;13.57;;;21.80;99.90;24.50;96520.00;;;;5073427;28;20688;-84
2022/06/21 07:00:26;;;;;;;16.67;11.17;;;22.00;99.90;24.60;96533.00;;;;5076450;28;20700;-86
2022/06/21 07:03:19;;;;;;;18.47;11.37;;;22.60;99.90;24.90;96525.00;;;;5069581;28;20578;-87
2022/06/21 07:06:19;;;;;;;11.60;9.80;;;22.60;99.90;25.00;96526.00;;;;5075944;28;20206;-84
2022/06/21 07:09:17;;;;;;;13.30;9.43;;;22.80;99.90;24.90;96534.00;;;;5070704;28;20204;-84
2022/06/21 07:12:15;;;;;;;9.33;8.43;;;22.90;99.90;24.70;96531.00;;;;5073221;28;20236;-86
2022/06/21 07:15:05;;;;;;;13.50;9.00;;;22.80;99.90;24.80;96541.00;;;;5072680;28;20234;-85
2022/06/21 07:17:57;;;;;;;8.93;8.13;;;22.80;99.90;24.70;96542.00;;;;5070992;28;20200;-85
2022/06/21 07:20:47;;;;;;;13.43;9.33;;;22.80;99.90;24.70;96534.00;;;;5065648;28;20219;-84
2022/06/21 07:23:38;;;;;;;11.23;9.40;;;22.80;99.90;24.90;96539.00;;;;5074882;28;20696;-84
2022/06/21 07:26:31;;;;;;;9.80;8.70;;;22.90;99.90;24.50;96531.00;;;;5073194;28;20207;-85
2022/06/21 07:29:26;;;;;;;15.07;9.93;;;22.90;99.90;23.50;96542.00;;;;5073281;28;20215;-87
2022/06/21 07:32:21;;;;;;;13.87;9.53;;;22.50;99.90;23.60;96548.00;;;;5071679;28;20206;-87
2022/06/21 07:35:14;;;;;;;12.43;10.63;;;22.40;99.90;23.70;96554.00;;;;5073827;28;20215;-85
2022/06/21 07:38:13;;;;;;;10.30;9.20;;;22.30;99.90;23.40;96542.00;;;;5061679;28;20207;-84
2022/06/21 07:41:11;;;;;;;12.67;10.77;;;22.30;99.90;23.70;96543.00;;;;5072219;28;20208;-85
2022/06/21 07:44:07;;;;;;;11.40;10.30;;;22.10;99.90;24.00;96536.00;;;;5073154;28;20704;-85
2022/06/21 07:47:04;;;;;;;13.83;9.57;;;22.20;99.90;23.90;96539.00;;;;5075686;28;20211;-85
2022/06/21 07:49:59;;;;;;;12.00;10.70;;;22.20;99.90;24.40;96538.00;;;;5065831;28;20613;-88
2022/06/21 07:52:53;;;;;;;13.90;9.97;;;22.20;99.90;25.00;96544.00;;;;5058687;28;20208;-86
2022/06/21 07:55:47;;;;;;;14.50;11.37;;;22.60;99.90;25.20;96546.00;;;;5071172;28;20685;-86
2022/06/21 07:58:44;;;;;;;12.13;9.97;;;22.60;99.90;25.40;96550.00;;;;5070420;28;20220;-84
2022/06/21 08:08:02;;;;;;;16.40;11.63;;;23.40;99.90;25.70;96566.00;;;;5066607;28;20226;-83
2022/06/21 08:10:58;;;;;;;15.70;11.80;;;23.70;99.90;25.10;96570.00;;;;5056467;28;20677;-84
2022/06/21 08:13:49;;;;;;;14.30;11.93;;;23.40;99.90;25.00;96550.00;;;;5065884;28;20203;-85
2022/06/21 08:16:44;;;;;;;19.00;12.70;;;23.50;99.90;24.70;96550.00;;;;5070935;28;20228;-83
2022/06/21 08:19:42;;;;;;;16.17;11.73;;;23.30;99.90;24.40;96548.00;;;;5054334;28;20231;-87
2022/06/21 08:22:38;;;;;;;15.53;13.93;;;23.10;99.90;25.20;96554.00;;;;5071140;28;20211;-84
2022/06/21 08:25:34;;;;;;;13.50;12.10;;;23.20;99.90;24.90;96557.00;;;;5063327;28;20223;-86
2022/06/21 08:28:32;;;;;;;13.13;11.83;;;23.30;99.90;25.00;96575.00;;;;5069344;28;20203;-84
2022/06/21 08:31:30;;;;;;;14.97;12.50;;;23.20;99.90;24.90;96573.00;;;;5062909;28;20200;-86
2022/06/21 08:34:27;;;;;;;16.47;13.17;;;23.10;99.90;24.40;96585.00;;;;5073985;28;20231;-86
2022/06/21 08:37:25;;;;;;;15.93;12.40;;;22.90;99.90;24.50;96590.00;;;;5076600;28;20672;-84
2022/06/21 08:41:03;;;;;;;16.60;13.67;;;22.80;99.90;24.40;96597.00;;;;5071518;28;20219;-85
2022/06/21 08:44:49;;;;;;;17.80;12.50;;;22.60;99.90;23.90;96592.00;;;;5042661;28;20211;-87
2022/06/21 08:48:26;;;;;;;16.43;12.30;;;22.50;99.90;24.00;96595.00;;;;5067775;28;20207;-88
2022/06/21 08:52:02;;;;;;;18.80;13.33;;;22.30;99.90;23.50;96603.00;;;;5066806;28;20583;-85
2022/06/21 08:55:09;;;;;;;14.13;11.60;;;22.10;99.90;23.30;96607.00;;;;5055353;28;20223;-84
2022/06/21 08:58:20;;;;;;;14.43;10.80;;;21.70;99.90;23.00;96605.00;;;;5072001;28;20204;-85
2022/06/21 09:01:18;;;;;;;13.53;10.53;;;21.70;99.90;23.00;96607.00;;;;5067192;28;20200;-86
2022/06/21 09:04:26;;;;;;;18.87;10.93;;;21.60;99.90;22.90;96612.00;;;;5072998;28;20246;-85
2022/06/21 09:07:58;;;;;;;15.27;10.97;;;21.40;99.90;22.50;96618.00;;;;5062205;28;20249;-84
2022/06/21 09:11:05;;;;;;;13.40;10.50;;;21.10;99.90;22.70;96619.00;;;;5040425;28;20219;-83
2022/06/21 09:14:34;;;;;;;12.50;9.63;;;21.00;99.90;22.50;96632.00;;;;5075608;28;20583;-85
2022/06/21 09:17:33;;;;;;;12.53;11.20;;;20.90;99.90;22.10;96619.00;;;;5066284;28;20223;-84
2022/06/21 09:20:34;;;;;;;13.03;11.13;;;20.90;99.90;22.20;96623.00;;;;5063623;28;20246;-86
2022/06/21 09:23:57;;;;;;;15.97;11.53;;;20.60;99.90;22.20;96626.00;;;;5070856;28;20242;-85
2022/06/21 09:26:52;;;;;;;13.17;11.80;;;20.70;99.90;22.10;96633.00;;;;5068766;28;20200;-84
2022/06/21 09:29:55;;;;;;;11.40;10.40;;;20.40;99.90;22.20;96622.00;;;;5066034;28;20590;-83
2022/06/21 09:32:55;;;;;;;13.00;11.53;;;20.60;99.90;22.10;96625.00;;;;5062908;28;20195;-84
2022/06/21 09:35:53;;;;;;;18.60;12.07;;;20.50;99.90;21.80;96624.00;;;;5067003;28;20219;-84
2022/06/21 09:38:56;;;;;;;16.07;12.60;;;20.30;99.90;20.60;96609.00;;;;5072580;28;20207;-85
2022/06/21 09:41:58;;;;;;;15.30;13.70;;;20.20;99.90;20.80;96611.00;;;;5067481;28;20214;-84
2022/06/21 09:44:58;;;;;;;16.63;12.37;;;19.90;99.90;21.20;96627.00;;;;5063077;28;20612;-85
2022/06/21 09:47:58;;;;;;;15.93;12.50;;;19.80;99.90;21.10;96624.00;;;;5073883;28;20203;-84
2022/06/21 09:51:00;;;;;;;17.70;12.97;;;19.70;99.90;21.00;96621.00;;;;5070921;28;20200;-85
2022/06/21 09:54:04;;;;;;;18.93;13.67;;;20.20;99.90;21.10;96633.00;;;;5069262;28;20204;-84
2022/06/21 09:57:06;;;;;;;18.33;14.57;;;19.50;99.90;21.10;96638.00;;;;5065673;28;20208;-84
2022/06/21 10:00:07;;;;;;;17.90;15.07;;;19.60;99.90;20.50;96632.00;;;;5060392;28;20227;-84
2022/06/21 10:03:12;;;;;;;17.20;13.20;;;19.40;99.90;21.10;96635.00;;;;5068067;28;20208;-86
2022/06/21 10:06:24;;;;;;;15.83;12.40;;;19.50;99.90;21.50;96637.00;;;;5069193;28;20211;-84
2022/06/21 10:09:26;;;;;;;14.63;12.17;;;19.50;99.90;21.60;96638.00;;;;5072711;28;20189;-85
2022/06/21 10:12:27;;;;;;;16.93;12.53;;;19.60;99.90;21.70;96632.00;;;;5071440;28;20200;-84
2022/06/21 10:15:40;;;;;;;14.47;11.93;;;19.70;99.90;21.60;96639.00;;;;5067081;28;20227;-84
2022/06/21 10:18:52;;;;;;;14.27;11.60;;;19.70;99.90;21.80;96644.00;;;;5071965;28;20215;-85
2022/06/21 10:21:59;;;;;;;13.50;10.87;;;19.70;99.90;21.90;96646.00;;;;5086969;22;20242;-66
2022/06/21 10:25:23;;;;;;;13.53;10.90;;;19.70;99.90;21.60;96647.00;;;;5068844;28;20228;-67
2022/06/21 10:28:55;;;;;;;13.43;11.60;;;19.90;99.90;21.60;96652.00;;;;5061622;28;20200;-66
2022/06/21 10:32:07;;;;;;;15.93;12.50;;;19.90;99.90;20.90;96659.00;;;;5036429;28;20196;-66
2022/06/21 10:35:14;;;;;;;15.90;11.37;;;19.70;99.90;21.20;96656.00;;;;5065280;28;20232;-66
2022/06/21 10:38:30;;;;;;;16.10;11.80;;;19.70;99.90;20.60;96661.00;;;;5054950;28;20208;-66
2022/06/21 10:41:37;;;;;;;17.90;12.47;;;19.40;99.90;21.00;96660.00;;;;5061408;28;20695;-67
2022/06/21 10:44:42;;;;;;;20.30;12.43;;;19.30;99.90;20.80;96652.00;;;;5063072;28;20223;-66
2022/06/21 10:47:56;;;;;;;17.07;13.03;;;19.40;99.90;20.50;96666.00;;;;5058214;28;20206;-66
2022/06/21 10:50:55;;;;;;;20.53;13.77;;;19.30;99.90;20.50;96654.00;;;;5060987;28;20211;-66
2022/06/21 10:54:06;;;;;;;18.00;12.00;;;19.30;99.90;20.50;96670.00;;;;5063391;28;20223;-66
2022/06/21 10:57:11;;;;;;;18.57;13.37;;;19.20;99.90;20.40;96676.00;;;;5060491;28;20671;-66
2022/06/21 11:04:19;;;;;;;17.67;13.60;;;19.10;99.90;20.50;96651.00;;;;5066910;28;20200;-65
2022/06/21 11:07:18;;;;;;;19.33;15.40;;;18.90;99.90;19.80;96656.00;;;;5060649;28;20235;-66
2022/06/21 11:10:14;;;;;;;21.87;15.83;;;18.90;99.90;20.30;96660.00;;;;5064885;28;20203;-65
2022/06/21 11:13:06;;;;;;;19.03;16.27;;;18.80;99.90;20.30;96669.00;;;;5062370;28;20204;-66
2022/06/21 11:16:04;;;;;;;19.57;15.90;;;18.90;99.90;20.10;96661.00;;;;5060135;28;20232;-66
2022/06/21 11:19:02;;;;;;;21.50;17.10;;;18.90;99.90;19.40;96656.00;;;;5062448;28;20212;-67
2022/06/21 11:22:12;;;;;;;23.53;17.03;;;18.80;99.90;19.70;96662.00;;;;5063056;28;20223;-66
2022/06/21 11:25:19;;;;;;;25.43;18.77;;;18.60;99.90;20.00;96658.00;;;;5058606;28;20232;-66
2022/06/21 11:28:22;;;;;;;25.27;19.03;;;18.70;99.90;20.30;96649.00;;;;5060108;28;20200;-65
2022/06/21 11:31:19;;;;;;;28.20;18.33;;;18.50;99.90;20.00;96652.00;;;;5059839;28;20223;-66
2022/06/21 11:34:24;;;;;;;23.73;18.20;;;18.60;99.90;20.10;96654.00;;;;5060565;28;20224;-66
2022/06/21 11:37:30;;;;;;;22.60;18.00;;;18.50;99.90;20.00;96646.00;;;;5063879;28;20617;-65
2022/06/21 11:40:41;;;;;;;23.80;18.83;;;18.60;99.90;20.10;96657.00;;;;5061805;28;20215;-66
2022/06/21 11:43:52;;;;;;;25.83;19.20;;;18.80;99.90;20.30;96664.00;;;;5059892;28;20200;-66
2022/06/21 11:46:47;;;;;;;24.90;19.07;;;18.60;99.90;20.50;96657.00;;;;5057611;28;20300;-66
2022/06/21 11:49:48;;;;;;;24.40;17.33;;;18.70;99.90;20.80;96653.00;;;;5058956;28;20211;-66
2022/06/21 11:53:28;;;;;;;22.57;16.53;;;19.00;99.90;21.10;96650.00;;;;5058023;28;20199;-66
2022/06/21 11:56:27;;;;;;;23.13;19.20;;;19.10;99.90;20.60;96648.00;;;;5058805;28;20192;-66
2022/06/21 11:59:24;;;;;;;42.20;21.83;;;19.10;99.90;20.20;96658.00;;;;5061128;28;20216;-66
2022/06/21 12:02:22;;;;;;;27.43;20.67;;;18.90;99.90;20.60;96663.00;;;;5060336;28;20225;-66
2022/06/21 12:05:27;;;;;;;30.43;20.60;;;19.10;99.90;20.80;96656.00;;;;5054499;28;20228;-66
2022/06/21 12:08:21;;;;;;;27.60;19.90;;;19.00;99.90;20.30;96660.00;;;;5058476;28;20212;-67
2022/06/21 12:11:16;;;;;;;26.37;19.27;;;19.10;99.90;20.60;96650.00;;;;5064785;28;20205;-66
2022/06/21 12:14:25;;;;;;;24.83;19.03;;;18.90;99.90;20.80;96648.00;;;;5083674;23;20224;-68
2022/06/21 12:17:20;;;;;;;22.40;19.53;;;19.00;99.90;20.50;96660.00;;;;5044191;28;20220;-66
2022/06/21 12:20:17;;;;;;;27.43;20.17;;;19.10;99.90;20.60;96652.00;;;;5045720;28;20675;-68
2022/06/21 12:23:18;;;;;;;28.53;19.67;;;19.00;99.90;20.50;96657.00;;;;5038645;28;20207;-66
2022/06/21 12:26:07;;;;;;;23.70;18.30;;;19.00;99.90;20.50;96669.00;;;;5044328;28;20220;-68
2022/06/21 12:28:58;;;;;;;28.17;19.83;;;19.00;99.90;20.50;96663.00;;;;5046663;28;20209;-68
2022/06/21 12:31:52;;;;;;;26.20;19.30;;;18.90;99.90;20.80;96655.00;;;;5041481;28;20211;-68
2022/06/21 12:34:47;;;;;;;26.93;16.63;;;19.10;99.90;20.90;96655.00;;;;5044637;28;20600;-66
2022/06/21 12:37:42;;;;;;;25.80;16.77;;;19.10;99.90;21.10;96652.00;;;;5046391;28;20188;-66
2022/06/21 12:40:36;;;;;;;21.87;15.43;;;19.00;99.90;21.10;96640.00;;;;5045281;28;20228;-67
2022/06/21 12:43:42;;;;;;;21.50;15.27;;;19.20;99.90;21.30;96648.00;;;;5038402;28;20200;-69
2022/06/21 12:46:41;;;;;;;24.00;17.47;;;19.50;99.90;21.10;96639.00;;;;5037861;28;20200;-68
2022/06/21 12:50:02;;;;;;;26.73;17.87;;;19.40;99.90;21.40;96624.00;;;;5042754;28;20209;-68
2022/06/21 12:53:05;;;;;;;24.60;15.23;;;19.50;99.90;21.50;96630.00;;;;5045562;28;20215;-69
2022/06/21 12:56:02;;;;;;;22.53;16.20;;;19.50;99.90;21.70;96614.00;;;;5041965;28;20698;-69
2022/06/21 12:59:32;;;;;;;24.10;16.40;;;19.60;99.90;21.60;96625.00;;;;5039950;28;20205;-68
2022/06/21 13:03:09;;;;;;;26.17;17.07;;;19.70;99.90;21.30;96640.00;;;;5042687;28;20220;-67
2022/06/21 13:06:19;;;;;;;28.00;17.10;;;19.80;99.90;20.50;96641.00;;;;5044166;28;20228;-68
2022/06/21 13:09:33;;;;;;;20.80;17.30;;;19.60;99.90;20.70;96632.00;;;;5044410;28;20197;-68
2022/06/21 13:12:50;;;;;;;24.63;17.40;;;19.50;99.90;20.50;96637.00;;;;5034243;28;20207;-68